Terminal Aerodrome Forecast
Issued by NWS

Home | Current Version | Previous Version | Graphics & Text | Print | Product List | Glossary On
Versions: 1 2 3 4 5 6 7 8 9 10 11 12 13 14 15 16 17
369
FTUS43 KMPX 202328
TAFRNH
TAF
KRNH 202328Z 2100/2124 29010KT P6SM OVC025
     FM210300 29010KT P6SM SCT025
     FM210500 28009KT P6SM SKC
     FM211200 25005KT P6SM SKC=

USA.gov is the U.S. government's official web portal to all federal, state and local government web resources and services.